createdAt,value
2017-02-17T00:00:15.534Z,86.43
2017-02-17T00:00:41.691Z,86.8
2017-02-17T00:01:07.829Z,86.61
2017-02-17T00:01:33.934Z,86.43
2017-02-17T00:02:00.096Z,86.99
2017-02-17T00:02:26.330Z,86.71
2017-02-17T00:02:52.520Z,86.71
2017-02-17T00:03:18.644Z,86.43
2017-02-17T00:03:44.796Z,86.61
2017-02-17T00:04:10.986Z,86.52
2017-02-17T00:04:37.129Z,87.19
2017-02-17T00:05:03.328Z,87.19
2017-02-17T00:05:29.449Z,87.19
2017-02-17T00:05:55.629Z,86.71
2017-02-17T00:06:21.730Z,86.61
2017-02-17T00:06:47.883Z,86.8
2017-02-17T00:07:14.032Z,86.9
2017-02-17T00:07:40.198Z,87.09
2017-02-17T00:08:06.343Z,86.14
2017-02-17T00:08:32.527Z,86.24
2017-02-17T00:08:58.663Z,85.86
2017-02-17T00:09:24.826Z,86.24
2017-02-17T00:09:50.983Z,86.14
2017-02-17T00:10:17.204Z,86.14
2017-02-17T00:10:43.353Z,86.14
2017-02-17T00:11:09.516Z,86.24
2017-02-17T00:11:35.724Z,86.14
2017-02-17T00:12:01.907Z,86.24
2017-02-17T00:12:28.066Z,86.05
2017-02-17T00:12:54.237Z,86.14
2017-02-17T00:13:20.362Z,86.43
2017-02-17T00:13:46.467Z,86.24
2017-02-17T00:14:12.668Z,86.43
2017-02-17T00:14:38.820Z,86.9
2017-02-17T00:15:04.934Z,86.99
2017-02-17T00:15:31.037Z,86.8
2017-02-17T00:15:57.193Z,86.71
2017-02-17T00:16:23.342Z,86.9
2017-02-17T00:16:49.489Z,86.9
2017-02-17T00:17:15.626Z,86.43
2017-02-17T00:17:41.742Z,86.24
2017-02-17T00:18:07.930Z,86.33
2017-02-17T00:18:34.072Z,86.24
2017-02-17T00:19:00.181Z,86.05
2017-02-17T00:19:26.330Z,86.43
2017-02-17T00:19:52.580Z,86.05
2017-02-17T00:20:18.681Z,86.24
2017-02-17T00:20:44.860Z,86.24
2017-02-17T00:21:11.002Z,86.33
2017-02-17T00:21:37.136Z,86.14
2017-02-17T00:22:03.283Z,86.05
2017-02-17T00:22:29.401Z,86.24
2017-02-17T00:22:55.531Z,86.24
2017-02-17T00:23:21.644Z,86.24
2017-02-17T00:23:47.824Z,86.43
2017-02-17T00:24:13.952Z,86.14
2017-02-17T00:24:40.119Z,86.24
2017-02-17T00:25:06.237Z,86.52
2017-02-17T00:25:32.373Z,86.52
2017-02-17T00:25:58.563Z,86.33
2017-02-17T00:26:24.721Z,86.33
2017-02-17T00:26:50.864Z,86.43
2017-02-17T00:27:17.039Z,86.05
2017-02-17T00:27:43.181Z,86.33
2017-02-17T00:28:09.352Z,86.33
2017-02-17T00:28:35.547Z,86.33
2017-02-17T00:29:01.742Z,86.52
2017-02-17T00:29:27.903Z,86.14
2017-02-17T00:29:54.034Z,86.33
2017-02-17T00:30:20.262Z,86.24
2017-02-17T00:30:46.459Z,86.05
2017-02-17T00:31:12.622Z,87.09
2017-02-17T00:31:38.786Z,86.9
2017-02-17T00:32:04.985Z,86.8
2017-02-17T00:32:31.146Z,86.71
2017-02-17T00:32:57.310Z,86.8
2017-02-17T00:33:23.503Z,86.43
2017-02-17T00:33:49.699Z,86.71
2017-02-17T00:34:15.961Z,86.99
2017-02-17T00:34:42.126Z,86.99
2017-02-17T00:35:08.287Z,86.61
2017-02-17T00:35:34.514Z,86.71
2017-02-17T00:36:00.709Z,86.61
2017-02-17T00:36:26.837Z,86.99
2017-02-17T00:36:53.034Z,86.9
2017-02-17T00:37:19.199Z,86.8
2017-02-17T00:37:45.361Z,86.9
2017-02-17T00:38:11.521Z,86.33
2017-02-17T00:38:37.654Z,86.05
2017-02-17T00:39:03.814Z,86.52
2017-02-17T00:39:29.943Z,86.52
2017-02-17T00:39:56.105Z,86.33
2017-02-17T00:40:22.300Z,86.33
2017-02-17T00:40:48.497Z,86.33
2017-02-17T00:41:14.694Z,86.71
2017-02-17T00:41:40.855Z,86.61
2017-02-17T00:42:07.044Z,86.71
2017-02-17T00:42:33.214Z,86.24
2017-02-17T00:42:59.410Z,86.33
2017-02-17T00:43:25.538Z,86.14
2017-02-17T00:43:51.698Z,86.43
2017-02-17T00:44:17.829Z,86.33
2017-02-17T00:44:43.988Z,85.86
2017-02-17T00:45:10.124Z,86.43
2017-02-17T00:45:36.290Z,86.43
2017-02-17T00:46:02.475Z,86.14
2017-02-17T00:46:28.614Z,86.14
2017-02-17T00:46:54.776Z,86.05
2017-02-17T00:47:20.930Z,86.05
2017-02-17T00:47:47.068Z,86.43
2017-02-17T00:48:13.204Z,86.43
2017-02-17T00:48:39.324Z,85.95
2017-02-17T00:49:05.478Z,85.95
2017-02-17T00:49:31.619Z,86.05
2017-02-17T00:49:57.793Z,86.33
2017-02-17T00:50:23.974Z,86.24
2017-02-17T00:50:50.131Z,86.33
2017-02-17T00:51:16.279Z,86.14
2017-02-17T00:51:42.381Z,86.43
2017-02-17T00:52:08.536Z,85.95
2017-02-17T00:52:34.682Z,86.05
2017-02-17T00:53:00.843Z,86.24
2017-02-17T00:53:26.991Z,86.33
2017-02-17T00:53:53.150Z,86.33
2017-02-17T00:54:19.337Z,86.33
2017-02-17T00:54:45.478Z,86.33
2017-02-17T00:55:11.620Z,86.14
2017-02-17T00:55:37.804Z,85.86
2017-02-17T00:56:03.976Z,86.14
2017-02-17T00:56:30.080Z,86.05
2017-02-17T00:56:56.224Z,87.09
2017-02-17T00:57:22.379Z,86.9
2017-02-17T00:57:48.539Z,86.9
2017-02-17T00:58:14.682Z,86.61
2017-02-17T00:58:40.833Z,86.24
2017-02-17T00:59:07.025Z,86.52
2017-02-17T00:59:33.169Z,86.9
2017-02-17T00:59:59.327Z,86.99
2017-02-17T01:00:25.464Z,87.09
2017-02-17T01:00:51.583Z,86.33
2017-02-17T01:01:17.713Z,86.05
2017-02-17T01:01:43.883Z,86.33
2017-02-17T01:02:10.076Z,86.05
2017-02-17T01:02:36.211Z,86.61
2017-02-17T01:03:02.413Z,86.43
2017-02-17T01:03:28.594Z,86.33
2017-02-17T01:03:54.803Z,86.33
2017-02-17T01:04:20.970Z,86.05
2017-02-17T01:04:47.128Z,86.52
2017-02-17T01:05:13.265Z,86.52
2017-02-17T01:05:39.418Z,86.14
2017-02-17T01:06:05.574Z,85.95
2017-02-17T01:06:31.718Z,86.14
2017-02-17T01:06:57.857Z,86.14
2017-02-17T01:07:23.977Z,86.14
2017-02-17T01:07:50.126Z,86.05
2017-02-17T01:08:16.319Z,86.14
2017-02-17T01:08:42.520Z,86.24
2017-02-17T01:09:08.708Z,85.76
2017-02-17T01:09:34.812Z,85.86
2017-02-17T01:10:00.989Z,86.05
2017-02-17T01:10:27.696Z,86.43
2017-02-17T01:10:53.836Z,86.14
2017-02-17T01:11:19.969Z,86.05
2017-02-17T01:11:46.124Z,86.05
2017-02-17T01:12:12.298Z,86.14
2017-02-17T01:12:38.478Z,86.24
2017-02-17T01:13:04.640Z,86.14
2017-02-17T01:13:30.812Z,86.33
2017-02-17T01:13:57.060Z,86.43
2017-02-17T01:14:23.194Z,86.24
2017-02-17T01:14:49.393Z,86.33
2017-02-17T01:15:15.498Z,85.95
2017-02-17T01:15:41.675Z,86.33
2017-02-17T01:16:07.809Z,86.43
2017-02-17T01:16:33.971Z,85.66
2017-02-17T01:17:00.185Z,86.14
2017-02-17T01:17:26.299Z,86.14
2017-02-17T01:17:52.501Z,85.86
2017-02-17T01:18:18.661Z,86.05
2017-02-17T01:18:44.783Z,86.14
2017-02-17T01:19:10.926Z,86.09
2017-02-17T01:19:37.088Z,86.14
2017-02-17T01:20:03.239Z,85.86
2017-02-17T01:20:29.444Z,85.95
2017-02-17T01:20:55.579Z,85.95
2017-02-17T01:21:21.782Z,86.24
2017-02-17T01:21:47.968Z,86.14
2017-02-17T01:22:14.099Z,86.14
2017-02-17T01:22:40.247Z,85.76
2017-02-17T01:23:06.420Z,86.05
2017-02-17T01:23:32.570Z,85.76
2017-02-17T01:23:58.686Z,86.05
2017-02-17T01:24:24.793Z,86.24
2017-02-17T01:24:50.973Z,85.57
2017-02-17T01:25:17.124Z,85.28
2017-02-17T01:25:43.287Z,85.47
2017-02-17T01:26:09.403Z,85.86
2017-02-17T01:26:35.556Z,85.86
2017-02-17T01:27:01.729Z,85.86
2017-02-17T01:27:27.895Z,85.66
2017-02-17T01:27:54.148Z,85.57
2017-02-17T01:28:20.253Z,86.05
2017-02-17T01:28:46.407Z,86.05
2017-02-17T01:29:12.507Z,86.05
2017-02-17T01:29:38.617Z,86.05
2017-02-17T01:30:04.775Z,86.14
2017-02-17T01:30:30.879Z,86.33
2017-02-17T01:30:57.052Z,86.33
2017-02-17T01:31:23.235Z,85.95
2017-02-17T01:31:49.376Z,86.33
2017-02-17T01:32:15.540Z,86.33
2017-02-17T01:32:41.659Z,86.14
2017-02-17T01:33:07.805Z,86.14
2017-02-17T01:33:33.908Z,86.33
2017-02-17T01:34:00.027Z,86.24
2017-02-17T01:34:26.136Z,86.14
2017-02-17T01:34:52.257Z,86.24
2017-02-17T01:35:18.400Z,86.24
2017-02-17T01:35:44.506Z,86.14
2017-02-17T01:36:10.689Z,86.43
2017-02-17T01:36:36.829Z,85.95
2017-02-17T01:37:02.935Z,86.05
2017-02-17T01:37:29.113Z,86.05
2017-02-17T01:37:55.256Z,85.66
2017-02-17T01:38:21.364Z,86.14
2017-02-17T01:38:47.533Z,86.05
2017-02-17T01:39:13.719Z,86.14
2017-02-17T01:39:39.829Z,86.05
2017-02-17T01:40:05.999Z,86.05
2017-02-17T01:40:32.151Z,86.14
2017-02-17T01:40:58.304Z,85.76
2017-02-17T01:41:24.472Z,86.33
2017-02-17T01:41:50.635Z,86.14
2017-02-17T01:42:16.756Z,86.14
2017-02-17T01:42:42.941Z,86.24
2017-02-17T01:43:09.042Z,86.43
2017-02-17T01:43:35.183Z,85.95
2017-02-17T01:44:01.307Z,86.14
2017-02-17T01:44:27.410Z,86.33
2017-02-17T01:44:53.525Z,86.14
2017-02-17T01:45:19.723Z,86.14
2017-02-17T01:45:45.910Z,85.38
2017-02-17T01:46:12.094Z,85.38
2017-02-17T01:46:38.256Z,86.05
2017-02-17T01:47:04.405Z,86.14
2017-02-17T01:47:30.581Z,86.33
2017-02-17T01:47:56.723Z,86.14
2017-02-17T01:48:22.868Z,86.14
2017-02-17T01:48:49.083Z,86.05
2017-02-17T01:49:15.188Z,85.95
2017-02-17T01:49:41.329Z,86.52
2017-02-17T01:50:07.548Z,86.61
2017-02-17T01:50:33.759Z,85.95
2017-02-17T01:50:59.866Z,86.14
2017-02-17T01:51:26.023Z,86.24
2017-02-17T01:51:52.167Z,86.61
2017-02-17T01:52:18.299Z,86.33
2017-02-17T01:52:44.450Z,86.33
2017-02-17T01:53:10.566Z,86.33
2017-02-17T01:53:36.701Z,86.43
2017-02-17T01:54:02.844Z,86.14
2017-02-17T01:54:29.001Z,86.33
2017-02-17T01:54:55.134Z,86.24
2017-02-17T01:55:21.277Z,86.33
2017-02-17T01:55:47.396Z,86.43
2017-02-17T01:56:13.560Z,86.52
2017-02-17T01:56:39.717Z,86.43
2017-02-17T01:57:05.869Z,86.24
2017-02-17T01:57:31.984Z,86.14
2017-02-17T01:57:58.161Z,86.71
2017-02-17T01:58:24.302Z,86.9
2017-02-17T01:58:50.416Z,86.67
2017-02-17T01:59:16.597Z,86.61
2017-02-17T01:59:42.788Z,86.8
2017-02-17T02:00:08.953Z,86.67
2017-02-17T02:00:35.139Z,86.61
2017-02-17T02:01:01.284Z,86.57
2017-02-17T02:01:27.415Z,87.05
2017-02-17T02:01:53.565Z,87.14
2017-02-17T02:02:19.670Z,86.9
2017-02-17T02:02:45.826Z,87.09
2017-02-17T02:03:11.990Z,87.19
2017-02-17T02:03:38.147Z,86.99
2017-02-17T02:04:04.305Z,87.28
2017-02-17T02:04:30.481Z,86.61
2017-02-17T02:04:56.703Z,86.61
2017-02-17T02:05:22.823Z,87.19
2017-02-17T02:05:48.944Z,86.86
2017-02-17T02:06:15.078Z,87.24
2017-02-17T02:06:41.292Z,87.24
2017-02-17T02:07:07.441Z,87.14
2017-02-17T02:07:33.551Z,87.24
2017-02-17T02:07:59.753Z,86.8
2017-02-17T02:08:25.884Z,86.71
2017-02-17T02:08:52.007Z,86.67
2017-02-17T02:09:18.156Z,87.19
2017-02-17T02:09:44.286Z,87.19
2017-02-17T02:10:10.430Z,86.61
2017-02-17T02:10:36.588Z,86.67
2017-02-17T02:11:02.689Z,86.67
2017-02-17T02:11:28.836Z,86.95
2017-02-17T02:11:54.988Z,86.86
2017-02-17T02:12:21.093Z,86.9
2017-02-17T02:12:47.261Z,86.99
2017-02-17T02:13:13.432Z,87.19
2017-02-17T02:13:39.614Z,86.99
2017-02-17T02:14:05.804Z,86.95
2017-02-17T02:14:31.936Z,87.14
2017-02-17T02:14:58.051Z,87.05
2017-02-17T02:15:24.266Z,87.34
2017-02-17T02:15:50.402Z,87.34
2017-02-17T02:16:16.572Z,87.43
2017-02-17T02:16:42.724Z,87.24
2017-02-17T02:17:08.833Z,87.19
2017-02-17T02:17:34.967Z,87.34
2017-02-17T02:18:01.120Z,87.9
2017-02-17T02:18:27.232Z,87.43
2017-02-17T02:18:53.432Z,87.34
2017-02-17T02:19:19.573Z,87.81
2017-02-17T02:19:45.761Z,87.34
2017-02-17T02:20:11.883Z,87.43
2017-02-17T02:20:38.022Z,87.43
2017-02-17T02:21:04.155Z,87.62
2017-02-17T02:21:30.280Z,87.14
2017-02-17T02:21:56.521Z,87.28
2017-02-17T02:22:22.652Z,87.24
2017-02-17T02:22:48.775Z,87.24
2017-02-17T02:23:14.916Z,87.52
2017-02-17T02:23:41.025Z,87.19
2017-02-17T02:24:07.169Z,86.86
2017-02-17T02:24:33.334Z,87.09
2017-02-17T02:24:59.550Z,87.05
2017-02-17T02:25:25.695Z,87.62
2017-02-17T02:25:51.858Z,87.62
2017-02-17T02:26:18.086Z,87.52
2017-02-17T02:26:44.237Z,87.52
2017-02-17T02:27:10.391Z,87.34
2017-02-17T02:27:36.569Z,87.52
2017-02-17T02:28:02.691Z,87.52
2017-02-17T02:28:28.818Z,87.34
2017-02-17T02:28:54.969Z,87.62
2017-02-17T02:29:21.080Z,87.81
2017-02-17T02:29:47.187Z,88
2017-02-17T02:30:13.336Z,87.81
2017-02-17T02:30:39.523Z,87.43
2017-02-17T02:31:05.698Z,87.24
2017-02-17T02:31:31.852Z,87.43
2017-02-17T02:31:58.013Z,87.47
2017-02-17T02:32:24.129Z,87.47
2017-02-17T02:32:50.250Z,87.47
2017-02-17T02:33:16.465Z,87.14
2017-02-17T02:33:42.602Z,87.43
2017-02-17T02:34:08.904Z,87.66
2017-02-17T02:34:35.049Z,87.66
2017-02-17T02:35:01.155Z,87.34
2017-02-17T02:35:27.338Z,87.66
2017-02-17T02:35:53.507Z,87.47
2017-02-17T02:36:19.639Z,87.47
2017-02-17T02:36:45.848Z,87.28
2017-02-17T02:37:12.023Z,87.19
2017-02-17T02:37:38.215Z,87.28
2017-02-17T02:38:04.390Z,87.38
2017-02-17T02:38:30.545Z,87.19
2017-02-17T02:38:56.699Z,87.28
2017-02-17T02:39:22.870Z,87.38
2017-02-17T02:39:49.021Z,87.38
2017-02-17T02:40:15.131Z,87.66
2017-02-17T02:40:41.330Z,87.47
2017-02-17T02:41:07.471Z,87.57
2017-02-17T02:41:33.672Z,87.66
2017-02-17T02:41:59.824Z,87.57
2017-02-17T02:42:25.977Z,87.47
2017-02-17T02:42:52.093Z,87.19
2017-02-17T02:43:18.239Z,87.28
2017-02-17T02:43:44.375Z,87.24
2017-02-17T02:44:10.533Z,87.57
2017-02-17T02:44:36.658Z,87.71
2017-02-17T02:45:02.768Z,88.04
2017-02-17T02:45:28.930Z,87.47
2017-02-17T02:45:55.152Z,87.19
2017-02-17T02:46:21.238Z,87.19
2017-02-17T02:46:47.419Z,87.57
2017-02-17T02:47:13.522Z,87.57
2017-02-17T02:47:39.637Z,87.47
2017-02-17T02:48:05.884Z,88.04
2017-02-17T02:48:32.027Z,87.43
2017-02-17T02:48:58.131Z,87.95
2017-02-17T02:49:24.253Z,87.9
2017-02-17T02:49:50.451Z,87.9
2017-02-17T02:50:16.552Z,88
2017-02-17T02:50:42.707Z,88
2017-02-17T02:51:08.827Z,87.81
2017-02-17T02:51:34.992Z,88.09
2017-02-17T02:52:01.137Z,87.81
2017-02-17T02:52:27.274Z,88
2017-02-17T02:52:53.455Z,87.85
2017-02-17T02:53:19.596Z,87.85
2017-02-17T02:53:45.757Z,87.95
2017-02-17T02:54:11.929Z,87.57
2017-02-17T02:54:38.047Z,87.47
2017-02-17T02:55:04.211Z,87.38
2017-02-17T02:55:30.379Z,88.04
2017-02-17T02:55:56.567Z,87.62
2017-02-17T02:56:22.729Z,87.85
2017-02-17T02:56:48.840Z,87.9
2017-02-17T02:57:15.026Z,87.81
2017-02-17T02:57:41.193Z,88.04
2017-02-17T02:58:07.378Z,87.85
2017-02-17T02:58:33.484Z,88.04
2017-02-17T02:58:59.602Z,87.85
2017-02-17T02:59:25.723Z,87.81
2017-02-17T02:59:51.845Z,88.28
2017-02-17T03:00:18.022Z,88
2017-02-17T03:00:44.145Z,88.04
2017-02-17T03:01:10.341Z,88.09
2017-02-17T03:01:36.451Z,87.76
2017-02-17T03:02:02.608Z,87.85
2017-02-17T03:02:28.715Z,87.85
2017-02-17T03:02:54.877Z,88.76
2017-02-17T03:03:21.026Z,88.47
2017-02-17T03:03:47.146Z,88.47
2017-02-17T03:04:13.327Z,88.57
2017-02-17T03:04:39.461Z,88.76
2017-02-17T03:05:05.647Z,88.67
2017-02-17T03:05:31.803Z,88.47
2017-02-17T03:05:57.975Z,88.61
2017-02-17T03:06:24.111Z,88.76
2017-02-17T03:06:50.294Z,88.57
2017-02-17T03:07:16.435Z,88.76
2017-02-17T03:07:42.570Z,88.19
2017-02-17T03:08:08.723Z,88.57
2017-02-17T03:08:34.939Z,88.57
2017-02-17T03:09:01.083Z,88.76
2017-02-17T03:09:27.251Z,88.57
2017-02-17T03:09:53.411Z,88.38
2017-02-17T03:10:19.565Z,88.47
2017-02-17T03:10:45.763Z,89.14
2017-02-17T03:11:11.994Z,88.85
2017-02-17T03:11:38.190Z,88.67
2017-02-17T03:12:04.416Z,89.23
2017-02-17T03:12:30.580Z,89.14
2017-02-17T03:12:56.742Z,89.04
2017-02-17T03:13:22.940Z,89.04
2017-02-17T03:13:49.134Z,89.04
2017-02-17T03:14:15.330Z,88.95
2017-02-17T03:14:41.523Z,89.04
2017-02-17T03:15:07.751Z,89.14
2017-02-17T03:15:33.945Z,89.04
2017-02-17T03:16:00.107Z,88.95
2017-02-17T03:16:26.233Z,89.04
2017-02-17T03:16:52.414Z,89.04
2017-02-17T03:17:18.576Z,88.95
2017-02-17T03:17:44.739Z,89.14
2017-02-17T03:18:10.905Z,89
2017-02-17T03:18:37.070Z,88.76
2017-02-17T03:19:03.234Z,88.95
2017-02-17T03:19:29.463Z,88.85
2017-02-17T03:19:55.626Z,89.04
2017-02-17T03:20:21.826Z,88.95
2017-02-17T03:20:47.987Z,89.04
2017-02-17T03:21:14.114Z,88.95
2017-02-17T03:21:40.277Z,89.04
2017-02-17T03:22:06.439Z,89.52
2017-02-17T03:22:32.601Z,89.42
2017-02-17T03:22:58.764Z,89.52
2017-02-17T03:23:24.927Z,89.09
2017-02-17T03:23:51.058Z,89
2017-02-17T03:24:17.290Z,89.14
2017-02-17T03:24:43.520Z,89.09
2017-02-17T03:25:09.682Z,88.95
2017-02-17T03:25:35.808Z,89.09
2017-02-17T03:26:02.004Z,88.71
2017-02-17T03:26:28.146Z,88.47
2017-02-17T03:26:54.266Z,88.61
2017-02-17T03:27:20.453Z,88.67
2017-02-17T03:27:46.637Z,89.18
2017-02-17T03:28:12.798Z,88.85
2017-02-17T03:28:38.919Z,89.18
2017-02-17T03:29:05.085Z,88.52
2017-02-17T03:29:31.232Z,88.71
2017-02-17T03:29:57.384Z,88.8
2017-02-17T03:30:23.530Z,88.8
2017-02-17T03:30:49.633Z,88.8
2017-02-17T03:31:15.782Z,88.61
2017-02-17T03:31:41.953Z,88.71
2017-02-17T03:32:08.099Z,88.61
2017-02-17T03:32:34.314Z,88.71
2017-02-17T03:33:00.454Z,88.9
2017-02-17T03:33:26.610Z,88.61
2017-02-17T03:33:52.715Z,88.8
2017-02-17T03:34:18.822Z,88.71
2017-02-17T03:34:45.013Z,88.61
2017-02-17T03:35:11.188Z,88.71
2017-02-17T03:35:37.292Z,88.71
2017-02-17T03:36:03.477Z,88.8
2017-02-17T03:36:29.589Z,88.71
2017-02-17T03:36:55.730Z,88.23
2017-02-17T03:37:21.840Z,88.52
2017-02-17T03:37:47.972Z,88.42
2017-02-17T03:38:14.152Z,88.33
2017-02-17T03:38:40.323Z,88.42
2017-02-17T03:39:06.511Z,88.33
2017-02-17T03:39:32.694Z,88.33
2017-02-17T03:39:58.869Z,88.33
2017-02-17T03:40:25.030Z,88.9
2017-02-17T03:40:51.151Z,88.71
2017-02-17T03:41:17.306Z,88.61
2017-02-17T03:41:43.412Z,88.71
2017-02-17T03:42:09.554Z,88.8
2017-02-17T03:42:35.736Z,89
2017-02-17T03:43:01.903Z,88.52
2017-02-17T03:43:28.043Z,88.9
2017-02-17T03:43:54.230Z,88.61
2017-02-17T03:44:20.370Z,88.61
2017-02-17T03:44:46.584Z,88.52
2017-02-17T03:45:12.743Z,88.61
2017-02-17T03:45:38.857Z,88.61
2017-02-17T03:46:04.992Z,88.8
2017-02-17T03:46:31.177Z,88.8
2017-02-17T03:46:57.386Z,88.23
2017-02-17T03:47:23.489Z,88.61
2017-02-17T03:47:49.669Z,88.42
2017-02-17T03:48:15.894Z,88.71
2017-02-17T03:48:42.048Z,88.8
2017-02-17T03:49:08.197Z,88.8
2017-02-17T03:49:34.296Z,88.9
2017-02-17T03:50:00.420Z,88.61
2017-02-17T03:50:26.568Z,88.61
2017-02-17T03:50:52.678Z,88.13
2017-02-17T03:51:18.853Z,88.61
2017-02-17T03:51:45.037Z,88.61
2017-02-17T03:52:11.189Z,88.33
2017-02-17T03:52:37.565Z,89
2017-02-17T03:53:03.764Z,88.23
2017-02-17T03:53:29.948Z,88.52
2017-02-17T03:53:56.112Z,88.33
2017-02-17T03:54:22.266Z,88.42
2017-02-17T03:54:48.404Z,88.33
2017-02-17T03:55:14.539Z,88.8
2017-02-17T03:55:40.696Z,88.61
2017-02-17T03:56:06.840Z,88.42
2017-02-17T03:56:32.971Z,88.61
2017-02-17T03:56:59.100Z,87.85
2017-02-17T03:57:25.247Z,88.04
2017-02-17T03:57:51.381Z,87.76
2017-02-17T03:58:17.555Z,88.04
2017-02-17T03:58:43.676Z,88.04
2017-02-17T03:59:09.814Z,87.85
2017-02-17T03:59:35.990Z,87.85
2017-02-17T04:00:02.179Z,87.76
2017-02-17T04:00:28.360Z,87.76
2017-02-17T04:00:54.473Z,87.85
2017-02-17T04:01:20.609Z,87.66
2017-02-17T04:01:46.817Z,87.38
2017-02-17T04:02:12.937Z,87.66
2017-02-17T04:02:39.092Z,87.66
2017-02-17T04:03:05.299Z,87.57
2017-02-17T04:03:31.452Z,87.28
2017-02-17T04:03:57.617Z,87.38
2017-02-17T04:04:23.728Z,87.66
2017-02-17T04:04:49.908Z,87.57
2017-02-17T04:05:16.038Z,87.66
2017-02-17T04:05:42.201Z,87.57
2017-02-17T04:06:08.357Z,87.57
2017-02-17T04:06:34.560Z,87.66
2017-02-17T04:07:00.667Z,87.66
2017-02-17T04:07:26.817Z,87.57
2017-02-17T04:07:52.966Z,87.38
2017-02-17T04:08:19.075Z,87.57
2017-02-17T04:08:45.249Z,88.04
2017-02-17T04:09:11.460Z,87.19
2017-02-17T04:09:37.566Z,87.38
2017-02-17T04:10:03.715Z,87.47
2017-02-17T04:10:29.820Z,87.47
2017-02-17T04:10:55.999Z,87.47
2017-02-17T04:11:22.209Z,87.38
2017-02-17T04:11:48.313Z,87.19
2017-02-17T04:12:14.432Z,86.43
2017-02-17T04:12:40.614Z,86.61
2017-02-17T04:13:06.774Z,86.9
2017-02-17T04:13:32.975Z,86.9
2017-02-17T04:13:59.166Z,86.8
2017-02-17T04:14:25.391Z,86.61
2017-02-17T04:14:51.587Z,86.8
2017-02-17T04:15:17.804Z,86.71
2017-02-17T04:15:43.898Z,86.71
2017-02-17T04:16:10.051Z,86.61
2017-02-17T04:16:36.179Z,86.9
2017-02-17T04:17:02.324Z,86.8
2017-02-17T04:17:28.472Z,86.99
2017-02-17T04:17:54.608Z,86.8
2017-02-17T04:18:20.721Z,86.9
2017-02-17T04:18:46.910Z,87.28
2017-02-17T04:19:13.016Z,87.28
2017-02-17T04:19:39.150Z,87.28
2017-02-17T04:20:05.371Z,87.28
2017-02-17T04:20:31.522Z,87.28
2017-02-17T04:20:57.686Z,87.09
2017-02-17T04:21:23.860Z,86.99
2017-02-17T04:21:50.026Z,87.28
2017-02-17T04:22:16.180Z,87.09
2017-02-17T04:22:42.374Z,86.9
2017-02-17T04:23:08.507Z,86.8
2017-02-17T04:23:34.694Z,87.38
2017-02-17T04:24:00.801Z,87.28
2017-02-17T04:24:26.984Z,86.8
2017-02-17T04:24:53.196Z,87.19
2017-02-17T04:25:19.308Z,86.9
2017-02-17T04:25:45.414Z,86.9
2017-02-17T04:26:11.597Z,87.19
2017-02-17T04:26:37.807Z,86.99
2017-02-17T04:27:03.945Z,87.19
2017-02-17T04:27:30.114Z,87.19
2017-02-17T04:27:56.218Z,87.19
2017-02-17T04:28:22.365Z,87.28
2017-02-17T04:28:48.511Z,86.99
2017-02-17T04:29:14.617Z,86.61
2017-02-17T04:29:40.828Z,86.71
2017-02-17T04:30:06.950Z,86.61
2017-02-17T04:30:33.111Z,86.43
2017-02-17T04:30:59.224Z,86.71
2017-02-17T04:31:25.348Z,86.52
2017-02-17T04:31:51.482Z,86.71
2017-02-17T04:32:17.656Z,86.71
2017-02-17T04:32:43.827Z,86.99
2017-02-17T04:33:09.972Z,86.99
2017-02-17T04:33:36.120Z,86.9
2017-02-17T04:34:02.286Z,87.09
2017-02-17T04:34:28.418Z,86.8
2017-02-17T04:34:54.602Z,86.43
2017-02-17T04:35:20.742Z,86.24
2017-02-17T04:35:46.857Z,86.33
2017-02-17T04:36:13.047Z,86.52
2017-02-17T04:36:39.183Z,86.43
2017-02-17T04:37:05.319Z,86.99
2017-02-17T04:37:31.479Z,86.61
2017-02-17T04:37:57.658Z,86.71
2017-02-17T04:38:23.769Z,86.43
2017-02-17T04:38:49.908Z,86.71
2017-02-17T04:39:16.022Z,86.43
2017-02-17T04:39:42.173Z,86.61
2017-02-17T04:40:08.281Z,86.71
2017-02-17T04:40:34.409Z,86.61
2017-02-17T04:41:00.600Z,86.8
2017-02-17T04:41:26.772Z,86.43
2017-02-17T04:41:52.879Z,86.61
2017-02-17T04:42:19.087Z,86.99
2017-02-17T04:42:45.262Z,86.61
2017-02-17T04:43:11.367Z,86.61
2017-02-17T04:43:37.517Z,86.71
2017-02-17T04:44:03.688Z,86.61
2017-02-17T04:44:29.870Z,86.61
2017-02-17T04:44:56.013Z,86.8
2017-02-17T04:45:22.121Z,86.8
2017-02-17T04:45:48.363Z,86.61
2017-02-17T04:46:14.519Z,86.99
2017-02-17T04:46:40.623Z,86.71
2017-02-17T04:47:06.837Z,86.71
2017-02-17T04:47:32.982Z,87.28
2017-02-17T04:47:59.141Z,86.8
2017-02-17T04:48:25.286Z,86.8
2017-02-17T04:48:51.440Z,87.09
2017-02-17T04:49:17.605Z,87.09
2017-02-17T04:49:43.746Z,87.19
2017-02-17T04:50:09.868Z,86.71
2017-02-17T04:50:35.979Z,86.61
2017-02-17T04:51:02.085Z,86.99
2017-02-17T04:51:28.217Z,86.61
2017-02-17T04:51:54.324Z,86.71
2017-02-17T04:52:20.460Z,86.71
2017-02-17T04:52:46.584Z,86.61
2017-02-17T04:53:12.730Z,86.61
2017-02-17T04:53:38.862Z,86.8
2017-02-17T04:54:04.984Z,86.99
2017-02-17T04:54:31.134Z,86.9
2017-02-17T04:54:57.274Z,86.71
2017-02-17T04:55:23.379Z,86.9
2017-02-17T04:55:49.547Z,86.71
2017-02-17T04:56:15.667Z,86.71
2017-02-17T04:56:41.846Z,86.71
2017-02-17T04:57:07.980Z,86.61
2017-02-17T04:57:34.132Z,86.99
2017-02-17T04:58:00.287Z,86.9
2017-02-17T04:58:26.476Z,86.43
2017-02-17T04:58:52.624Z,87.09
2017-02-17T04:59:18.837Z,86.43
2017-02-17T04:59:45.004Z,86.61
2017-02-17T05:00:11.171Z,86.9
2017-02-17T05:00:37.387Z,86.8
2017-02-17T05:01:03.527Z,86.99
2017-02-17T05:01:29.649Z,86.9
2017-02-17T05:01:55.814Z,86.71
2017-02-17T05:02:21.933Z,86.99
2017-02-17T05:02:48.085Z,86.71
2017-02-17T05:03:14.245Z,86.52
2017-02-17T05:03:40.415Z,86.71
2017-02-17T05:04:06.632Z,86.9
2017-02-17T05:04:32.830Z,86.9
2017-02-17T05:04:58.962Z,86.9
2017-02-17T05:05:25.119Z,86.99
2017-02-17T05:05:51.312Z,86.9
2017-02-17T05:06:17.432Z,86.99
2017-02-17T05:06:43.626Z,86.99
2017-02-17T05:07:09.766Z,86.24
2017-02-17T05:07:35.889Z,86.33
2017-02-17T05:08:02.126Z,86.14
2017-02-17T05:08:28.252Z,86.24
2017-02-17T05:08:54.415Z,86.52
2017-02-17T05:09:20.556Z,86.33
2017-02-17T05:09:46.689Z,86.24
2017-02-17T05:10:12.812Z,86.43
2017-02-17T05:10:38.964Z,86.99
2017-02-17T05:11:05.067Z,86.8
2017-02-17T05:11:31.213Z,86.61
2017-02-17T05:11:57.409Z,86.9
2017-02-17T05:12:23.568Z,86.61
2017-02-17T05:12:49.677Z,86.99
2017-02-17T05:13:15.844Z,86.61
2017-02-17T05:13:41.995Z,86.99
2017-02-17T05:14:08.113Z,86.9
2017-02-17T05:14:34.218Z,86.9
2017-02-17T05:15:00.455Z,86.9
2017-02-17T05:15:26.632Z,86.61
2017-02-17T05:15:52.765Z,86.9
2017-02-17T05:16:18.905Z,86.71
2017-02-17T05:16:45.031Z,86.71
2017-02-17T05:17:11.224Z,86.61
2017-02-17T05:17:37.340Z,86.8
2017-02-17T05:18:03.526Z,86.99
2017-02-17T05:18:29.670Z,86.71
2017-02-17T05:18:55.855Z,86.99
2017-02-17T05:19:22.042Z,86.52
2017-02-17T05:19:48.218Z,86.8
2017-02-17T05:20:14.337Z,86.61
2017-02-17T05:20:40.477Z,86.71
2017-02-17T05:21:06.614Z,86.43
2017-02-17T05:21:32.762Z,86.71
2017-02-17T05:21:58.898Z,86.61
2017-02-17T05:22:25.007Z,86.8
2017-02-17T05:22:51.183Z,87.19
2017-02-17T05:23:17.333Z,87.28
2017-02-17T05:23:43.457Z,87.09
2017-02-17T05:24:09.652Z,86.61
2017-02-17T05:24:35.788Z,86.99
2017-02-17T05:25:01.974Z,86.99
2017-02-17T05:25:28.117Z,87.28
2017-02-17T05:25:54.276Z,87.09
2017-02-17T05:26:20.398Z,87.19
2017-02-17T05:26:46.540Z,86.99
2017-02-17T05:27:12.683Z,86.99
2017-02-17T05:27:38.805Z,86.71
2017-02-17T05:28:04.956Z,86.9
2017-02-17T05:28:31.094Z,87.57
2017-02-17T05:28:57.324Z,87.38
2017-02-17T05:29:23.429Z,87.47
2017-02-17T05:29:49.611Z,87.28
2017-02-17T05:30:15.782Z,87.66
2017-02-17T05:30:41.908Z,87.47
2017-02-17T05:31:08.034Z,87.57
2017-02-17T05:31:34.180Z,87.85
2017-02-17T05:32:00.345Z,88.71
2017-02-17T05:32:26.519Z,88.61
2017-02-17T05:32:52.709Z,88.8
2017-02-17T05:33:18.835Z,89.28
2017-02-17T05:33:44.980Z,88.71
2017-02-17T05:34:11.104Z,88.8
2017-02-17T05:34:37.264Z,89.09
2017-02-17T05:35:03.433Z,89.09
2017-02-17T05:35:29.613Z,89
2017-02-17T05:35:55.750Z,89.37
2017-02-17T05:36:21.888Z,88.9
2017-02-17T05:36:48.132Z,88.9
2017-02-17T05:37:14.299Z,88.71
2017-02-17T05:37:40.467Z,88.8
2017-02-17T05:38:06.651Z,88.33
2017-02-17T05:38:32.865Z,88.23